メインページ
METAR-TAF:

METAR-TAF

空港 :

上海浦東, 中華人民共和国

上海浦東国際空港

緯度: 31-07N, 経度: 121-46E, 海抜: 4m

現時点の気象観測

当レポートは44分前の14:00(UTC)に作成
南/南東の風 8kt
気温 29°C
湿度 84%
気圧 1007 hPa
視程10km以上
1,500メートル以下は雲なし、積乱雲なし

METAR: ZSPD 271400Z 15004MPS CAVOK 29/26 Q1007 NOSIG

時間: 22:44 (14:44 UTC)

予報

当レポートは5時間25分前の09:19(UTC)に作成
予報は27日の 12時(UTC)から 28日の 12時(UTC)まで有効
東/南東の風 8kt
視程: 6000m
高度2000ftの雲は散在している

TAF: ZSPD 270919Z 2712/2812 11004MPS 6000 SCT020 TX36/2806Z TN28/2720Z

4,000以上の空港の気象観測と天気予報(METAR報とTAF報)

利用可能な観測所は地図上に黄色い丸と赤い丸で示す。

丸の上にカーソルを重ねると観測所名を参照できる。

次にクリックすると気象観測と天気予報を参照できる。

マップの切り替え:黒色「×」印の緑ボタンをクリックして拡大、「-」印の緑ボタンをクリックして縮小、緑色の三角印をクリックして隣りの地図に切り替え


METAR-TAF: